sensor_id;sensor_type;location;lat;lon;timestamp;temperature;humidity
18624;DHT22;9441;51.420;7.036;2024-03-02T00:00:10;8.20;1.00
18624;DHT22;9441;51.420;7.036;2024-03-02T00:01:14;8.20;1.00
18624;DHT22;9441;51.420;7.036;2024-03-02T00:02:15;8.20;1.00
18624;DHT22;9441;51.420;7.036;2024-03-02T00:03:19;8.20;1.00
18624;DHT22;9441;51.420;7.036;2024-03-02T00:04:20;8.20;1.00
18624;DHT22;9441;51.420;7.036;2024-03-02T00:05:22;8.20;1.00
18624;DHT22;9441;51.420;7.036;2024-03-02T00:06:24;8.20;1.00
18624;DHT22;9441;51.420;7.036;2024-03-02T00:07:25;8.30;1.00
18624;DHT22;9441;51.420;7.036;2024-03-02T00:08:27;8.30;1.00
18624;DHT22;9441;51.420;7.036;2024-03-02T00:09:29;8.20;1.00
18624;DHT22;9441;51.420;7.036;2024-03-02T00:10:38;8.20;1.00
18624;DHT22;9441;51.420;7.036;2024-03-02T00:11:40;8.30;1.00
18624;DHT22;9441;51.420;7.036;2024-03-02T00:12:42;8.30;1.00
18624;DHT22;9441;51.420;7.036;2024-03-02T00:13:44;8.30;1.00
18624;DHT22;9441;51.420;7.036;2024-03-02T00:14:45;8.30;1.00
18624;DHT22;9441;51.420;7.036;2024-03-02T00:15:48;8.30;1.00
18624;DHT22;9441;51.420;7.036;2024-03-02T00:16:51;8.30;1.00
18624;DHT22;9441;51.420;7.036;2024-03-02T00:17:54;8.30;1.00
18624;DHT22;9441;51.420;7.036;2024-03-02T00:18:58;8.30;1.00
18624;DHT22;9441;51.420;7.036;2024-03-02T00:20:03;8.30;1.00
18624;DHT22;9441;51.420;7.036;2024-03-02T00:21:06;8.30;1.00
18624;DHT22;9441;51.420;7.036;2024-03-02T00:22:10;8.30;1.00
18624;DHT22;9441;51.420;7.036;2024-03-02T00:23:15;8.30;1.00
18624;DHT22;9441;51.420;7.036;2024-03-02T00:24:21;8.30;1.00
18624;DHT22;9441;51.420;7.036;2024-03-02T00:25:22;8.30;1.00
18624;DHT22;9441;51.420;7.036;2024-03-02T00:26:24;8.30;1.00
18624;DHT22;9441;51.420;7.036;2024-03-02T00:27:26;8.20;1.00
18624;DHT22;9441;51.420;7.036;2024-03-02T00:28:30;8.20;1.00
18624;DHT22;9441;51.420;7.036;2024-03-02T00:29:35;8.20;1.00
18624;DHT22;9441;51.420;7.036;2024-03-02T00:30:55;8.20;1.00
18624;DHT22;9441;51.420;7.036;2024-03-02T00:31:57;8.30;1.00
18624;DHT22;9441;51.420;7.036;2024-03-02T00:32:59;8.30;1.00
18624;DHT22;9441;51.420;7.036;2024-03-02T00:34:05;8.30;1.00
18624;DHT22;9441;51.420;7.036;2024-03-02T00:35:07;8.30;1.00
18624;DHT22;9441;51.420;7.036;2024-03-02T00:36:09;8.30;1.00
18624;DHT22;9441;51.420;7.036;2024-03-02T00:37:11;8.30;1.00
18624;DHT22;9441;51.420;7.036;2024-03-02T00:38:13;8.30;1.00
18624;DHT22;9441;51.420;7.036;2024-03-02T00:39:15;8.30;1.00
18624;DHT22;9441;51.420;7.036;2024-03-02T00:40:18;8.30;1.00
18624;DHT22;9441;51.420;7.036;2024-03-02T00:41:21;8.30;1.00
18624;DHT22;9441;51.420;7.036;2024-03-02T00:42:23;8.40;1.00
18624;DHT22;9441;51.420;7.036;2024-03-02T00:43:47;8.40;1.00
18624;DHT22;9441;51.420;7.036;2024-03-02T00:44:48;8.40;1.00
18624;DHT22;9441;51.420;7.036;2024-03-02T00:45:50;8.40;1.00
18624;DHT22;9441;51.420;7.036;2024-03-02T00:46:52;8.40;1.00
18624;DHT22;9441;51.420;7.036;2024-03-02T00:47:55;8.40;1.00
18624;DHT22;9441;51.420;7.036;2024-03-02T00:48:57;8.40;1.00
18624;DHT22;9441;51.420;7.036;2024-03-02T00:50:01;8.40;1.00
18624;DHT22;9441;51.420;7.036;2024-03-02T00:51:03;8.40;1.00
18624;DHT22;9441;51.420;7.036;2024-03-02T00:52:05;8.50;1.00
18624;DHT22;9441;51.420;7.036;2024-03-02T00:53:10;8.40;1.00
18624;DHT22;9441;51.420;7.036;2024-03-02T00:54:13;8.50;1.00
18624;DHT22;9441;51.420;7.036;2024-03-02T00:55:16;8.50;1.00
18624;DHT22;9441;51.420;7.036;2024-03-02T00:56:17;8.50;1.00
18624;DHT22;9441;51.420;7.036;2024-03-02T00:57:18;8.50;1.00
18624;DHT22;9441;51.420;7.036;2024-03-02T00:58:21;8.50;1.00
18624;DHT22;9441;51.420;7.036;2024-03-02T00:59:22;8.50;1.00
18624;DHT22;9441;51.420;7.036;2024-03-02T01:00:24;8.50;1.00
18624;DHT22;9441;51.420;7.036;2024-03-02T01:01:25;8.50;1.00
18624;DHT22;9441;51.420;7.036;2024-03-02T01:02:28;8.50;1.00
18624;DHT22;9441;51.420;7.036;2024-03-02T01:03:31;8.50;1.00
18624;DHT22;9441;51.420;7.036;2024-03-02T01:04:33;8.50;1.00
18624;DHT22;9441;51.420;7.036;2024-03-02T01:05:35;8.50;1.00
18624;DHT22;9441;51.420;7.036;2024-03-02T01:06:37;8.50;1.00
18624;DHT22;9441;51.420;7.036;2024-03-02T01:07:38;8.60;1.00
18624;DHT22;9441;51.420;7.036;2024-03-02T01:08:40;8.60;1.00
18624;DHT22;9441;51.420;7.036;2024-03-02T01:09:42;8.60;1.00
18624;DHT22;9441;51.420;7.036;2024-03-02T01:10:44;8.60;1.00
18624;DHT22;9441;51.420;7.036;2024-03-02T01:11:45;8.60;1.00
18624;DHT22;9441;51.420;7.036;2024-03-02T01:12:47;8.60;1.00
18624;DHT22;9441;51.420;7.036;2024-03-02T01:13:48;8.70;1.00
18624;DHT22;9441;51.420;7.036;2024-03-02T01:14:50;8.70;1.00
18624;DHT22;9441;51.420;7.036;2024-03-02T01:15:52;8.70;1.00
18624;DHT22;9441;51.420;7.036;2024-03-02T01:16:53;8.70;1.00
18624;DHT22;9441;51.420;7.036;2024-03-02T01:17:56;8.70;1.00
18624;DHT22;9441;51.420;7.036;2024-03-02T01:18:57;8.80;1.00
18624;DHT22;9441;51.420;7.036;2024-03-02T01:19:59;8.70;1.00
18624;DHT22;9441;51.420;7.036;2024-03-02T01:21:01;8.80;1.00
18624;DHT22;9441;51.420;7.036;2024-03-02T01:22:03;8.80;1.00
18624;DHT22;9441;51.420;7.036;2024-03-02T01:23:04;8.80;1.00
18624;DHT22;9441;51.420;7.036;2024-03-02T01:24:05;8.80;1.00
18624;DHT22;9441;51.420;7.036;2024-03-02T01:25:08;8.80;1.00
18624;DHT22;9441;51.420;7.036;2024-03-02T01:26:09;8.80;1.00
18624;DHT22;9441;51.420;7.036;2024-03-02T01:27:10;8.80;1.00
18624;DHT22;9441;51.420;7.036;2024-03-02T01:28:12;8.80;1.00
18624;DHT22;9441;51.420;7.036;2024-03-02T01:29:14;8.90;1.00
18624;DHT22;9441;51.420;7.036;2024-03-02T01:30:16;8.80;1.00
18624;DHT22;9441;51.420;7.036;2024-03-02T01:31:17;8.90;1.00
18624;DHT22;9441;51.420;7.036;2024-03-02T01:32:19;8.80;1.00
18624;DHT22;9441;51.420;7.036;2024-03-02T01:33:20;8.80;1.00
18624;DHT22;9441;51.420;7.036;2024-03-02T01:34:22;8.80;1.00
18624;DHT22;9441;51.420;7.036;2024-03-02T01:35:23;8.80;1.00
18624;DHT22;9441;51.420;7.036;2024-03-02T01:36:26;8.80;1.00
18624;DHT22;9441;51.420;7.036;2024-03-02T01:37:28;8.80;1.00
18624;DHT22;9441;51.420;7.036;2024-03-02T01:38:28;8.90;1.00
18624;DHT22;9441;51.420;7.036;2024-03-02T01:39:29;9.00;1.00
18624;DHT22;9441;51.420;7.036;2024-03-02T01:40:32;8.90;1.00
18624;DHT22;9441;51.420;7.036;2024-03-02T01:41:33;8.90;1.00
18624;DHT22;9441;51.420;7.036;2024-03-02T01:42:36;8.90;1.00
18624;DHT22;9441;51.420;7.036;2024-03-02T01:43:37;8.90;1.00
18624;DHT22;9441;51.420;7.036;2024-03-02T01:44:40;8.90;1.00
18624;DHT22;9441;51.420;7.036;2024-03-02T01:45:41;8.80;1.00
18624;DHT22;9441;51.420;7.036;2024-03-02T01:46:42;8.90;1.00
18624;DHT22;9441;51.420;7.036;2024-03-02T01:47:44;8.90;1.00
18624;DHT22;9441;51.420;7.036;2024-03-02T01:48:45;8.90;1.00
18624;DHT22;9441;51.420;7.036;2024-03-02T01:49:48;8.80;1.00
18624;DHT22;9441;51.420;7.036;2024-03-02T01:50:50;8.80;1.00
18624;DHT22;9441;51.420;7.036;2024-03-02T01:51:53;8.80;1.00
18624;DHT22;9441;51.420;7.036;2024-03-02T01:52:55;8.80;1.00
18624;DHT22;9441;51.420;7.036;2024-03-02T01:53:57;8.80;1.00
18624;DHT22;9441;51.420;7.036;2024-03-02T01:54:58;8.80;1.00
18624;DHT22;9441;51.420;7.036;2024-03-02T01:56:00;8.70;1.00
18624;DHT22;9441;51.420;7.036;2024-03-02T01:57:02;8.80;1.00
18624;DHT22;9441;51.420;7.036;2024-03-02T01:58:04;8.70;1.00
18624;DHT22;9441;51.420;7.036;2024-03-02T01:59:05;8.70;1.00
18624;DHT22;9441;51.420;7.036;2024-03-02T02:00:08;8.70;1.00
18624;DHT22;9441;51.420;7.036;2024-03-02T02:01:12;8.70;1.00
18624;DHT22;9441;51.420;7.036;2024-03-02T02:02:14;8.70;1.00
18624;DHT22;9441;51.420;7.036;2024-03-02T02:03:15;8.70;1.00
18624;DHT22;9441;51.420;7.036;2024-03-02T02:04:18;8.60;1.00
18624;DHT22;9441;51.420;7.036;2024-03-02T02:05:19;8.60;1.00
18624;DHT22;9441;51.420;7.036;2024-03-02T02:06:20;8.70;1.00
18624;DHT22;9441;51.420;7.036;2024-03-02T02:07:23;8.70;1.00
18624;DHT22;9441;51.420;7.036;2024-03-02T02:08:24;8.60;1.00
18624;DHT22;9441;51.420;7.036;2024-03-02T02:09:26;8.60;1.00
18624;DHT22;9441;51.420;7.036;2024-03-02T02:10:28;8.60;1.00
18624;DHT22;9441;51.420;7.036;2024-03-02T02:11:30;8.50;1.00
18624;DHT22;9441;51.420;7.036;2024-03-02T02:12:31;8.50;1.00
18624;DHT22;9441;51.420;7.036;2024-03-02T02:13:32;8.50;1.00
18624;DHT22;9441;51.420;7.036;2024-03-02T02:14:34;8.60;1.00
18624;DHT22;9441;51.420;7.036;2024-03-02T02:15:35;8.60;1.00
18624;DHT22;9441;51.420;7.036;2024-03-02T02:16:37;8.60;1.00
18624;DHT22;9441;51.420;7.036;2024-03-02T02:17:38;8.60;1.00
18624;DHT22;9441;51.420;7.036;2024-03-02T02:18:39;8.60;1.00
18624;DHT22;9441;51.420;7.036;2024-03-02T02:19:41;8.60;1.00
18624;DHT22;9441;51.420;7.036;2024-03-02T02:20:42;8.60;1.00
18624;DHT22;9441;51.420;7.036;2024-03-02T02:21:45;8.60;1.00
18624;DHT22;9441;51.420;7.036;2024-03-02T02:22:57;8.60;1.00
18624;DHT22;9441;51.420;7.036;2024-03-02T02:23:58;8.70;1.00
18624;DHT22;9441;51.420;7.036;2024-03-02T02:25:00;8.60;1.00
18624;DHT22;9441;51.420;7.036;2024-03-02T02:26:01;8.70;1.00
18624;DHT22;9441;51.420;7.036;2024-03-02T02:27:03;8.70;1.00
18624;DHT22;9441;51.420;7.036;2024-03-02T02:28:04;8.70;1.00
18624;DHT22;9441;51.420;7.036;2024-03-02T02:29:07;8.60;1.00
18624;DHT22;9441;51.420;7.036;2024-03-02T02:30:08;8.60;1.00
18624;DHT22;9441;51.420;7.036;2024-03-02T02:31:11;8.60;1.00
18624;DHT22;9441;51.420;7.036;2024-03-02T02:32:12;8.70;1.00
18624;DHT22;9441;51.420;7.036;2024-03-02T02:33:13;8.60;1.00
18624;DHT22;9441;51.420;7.036;2024-03-02T02:34:15;8.70;1.00
18624;DHT22;9441;51.420;7.036;2024-03-02T02:35:16;8.60;1.00
18624;DHT22;9441;51.420;7.036;2024-03-02T02:36:18;8.60;1.00
18624;DHT22;9441;51.420;7.036;2024-03-02T02:37:20;8.70;1.00
18624;DHT22;9441;51.420;7.036;2024-03-02T02:38:22;8.70;1.00
18624;DHT22;9441;51.420;7.036;2024-03-02T02:39:23;8.70;1.00
18624;DHT22;9441;51.420;7.036;2024-03-02T02:40:27;8.70;1.00
18624;DHT22;9441;51.420;7.036;2024-03-02T02:41:30;8.70;1.00
18624;DHT22;9441;51.420;7.036;2024-03-02T02:42:32;8.70;1.00
18624;DHT22;9441;51.420;7.036;2024-03-02T02:43:33;8.70;1.00
18624;DHT22;9441;51.420;7.036;2024-03-02T02:44:34;8.70;1.00
18624;DHT22;9441;51.420;7.036;2024-03-02T02:45:36;8.70;1.00
18624;DHT22;9441;51.420;7.036;2024-03-02T02:46:37;8.70;1.00
18624;DHT22;9441;51.420;7.036;2024-03-02T02:47:39;8.70;1.00
18624;DHT22;9441;51.420;7.036;2024-03-02T02:48:41;8.70;1.00
18624;DHT22;9441;51.420;7.036;2024-03-02T02:49:42;8.80;1.00
18624;DHT22;9441;51.420;7.036;2024-03-02T02:50:43;8.80;1.00
18624;DHT22;9441;51.420;7.036;2024-03-02T02:51:45;8.80;1.00
18624;DHT22;9441;51.420;7.036;2024-03-02T02:52:47;8.80;1.00
18624;DHT22;9441;51.420;7.036;2024-03-02T02:53:49;8.80;1.00
18624;DHT22;9441;51.420;7.036;2024-03-02T02:54:50;8.80;1.00
18624;DHT22;9441;51.420;7.036;2024-03-02T02:55:53;8.80;1.00
18624;DHT22;9441;51.420;7.036;2024-03-02T02:56:54;8.70;1.00
18624;DHT22;9441;51.420;7.036;2024-03-02T02:57:56;8.80;1.00
18624;DHT22;9441;51.420;7.036;2024-03-02T02:58:57;8.80;1.00
18624;DHT22;9441;51.420;7.036;2024-03-02T02:59:58;8.80;1.00
18624;DHT22;9441;51.420;7.036;2024-03-02T03:01:00;8.80;1.00
18624;DHT22;9441;51.420;7.036;2024-03-02T03:02:01;8.80;1.00
18624;DHT22;9441;51.420;7.036;2024-03-02T03:03:03;8.80;1.00
18624;DHT22;9441;51.420;7.036;2024-03-02T03:04:04;8.80;1.00
18624;DHT22;9441;51.420;7.036;2024-03-02T03:05:06;8.70;1.00
18624;DHT22;9441;51.420;7.036;2024-03-02T03:06:08;8.70;1.00
18624;DHT22;9441;51.420;7.036;2024-03-02T03:07:09;8.80;1.00
18624;DHT22;9441;51.420;7.036;2024-03-02T03:08:12;8.70;1.00
18624;DHT22;9441;51.420;7.036;2024-03-02T03:09:13;8.70;1.00
18624;DHT22;9441;51.420;7.036;2024-03-02T03:10:15;8.70;1.00
18624;DHT22;9441;51.420;7.036;2024-03-02T03:11:16;8.70;1.00
18624;DHT22;9441;51.420;7.036;2024-03-02T03:12:18;8.80;1.00
18624;DHT22;9441;51.420;7.036;2024-03-02T03:13:19;8.80;1.00
18624;DHT22;9441;51.420;7.036;2024-03-02T03:14:22;8.80;1.00
18624;DHT22;9441;51.420;7.036;2024-03-02T03:15:23;8.90;1.00
18624;DHT22;9441;51.420;7.036;2024-03-02T03:16:25;8.80;1.00
18624;DHT22;9441;51.420;7.036;2024-03-02T03:17:26;8.80;1.00
18624;DHT22;9441;51.420;7.036;2024-03-02T03:18:28;8.90;1.00
18624;DHT22;9441;51.420;7.036;2024-03-02T03:19:29;8.90;1.00
18624;DHT22;9441;51.420;7.036;2024-03-02T03:20:31;8.90;1.00
18624;DHT22;9441;51.420;7.036;2024-03-02T03:21:32;8.90;1.00
18624;DHT22;9441;51.420;7.036;2024-03-02T03:22:34;8.90;1.00
18624;DHT22;9441;51.420;7.036;2024-03-02T03:23:37;8.90;1.00
18624;DHT22;9441;51.420;7.036;2024-03-02T03:24:39;9.00;1.00
18624;DHT22;9441;51.420;7.036;2024-03-02T03:25:40;8.90;1.00
18624;DHT22;9441;51.420;7.036;2024-03-02T03:26:42;8.90;1.00
18624;DHT22;9441;51.420;7.036;2024-03-02T03:27:43;8.90;1.00
18624;DHT22;9441;51.420;7.036;2024-03-02T03:28:45;8.90;1.00
18624;DHT22;9441;51.420;7.036;2024-03-02T03:29:46;8.90;1.00
18624;DHT22;9441;51.420;7.036;2024-03-02T03:30:48;8.90;1.00
18624;DHT22;9441;51.420;7.036;2024-03-02T03:31:49;8.90;1.00
18624;DHT22;9441;51.420;7.036;2024-03-02T03:32:51;8.90;1.00
18624;DHT22;9441;51.420;7.036;2024-03-02T03:33:52;8.90;1.00
18624;DHT22;9441;51.420;7.036;2024-03-02T03:34:54;8.90;1.00
18624;DHT22;9441;51.420;7.036;2024-03-02T03:35:55;8.90;1.00
18624;DHT22;9441;51.420;7.036;2024-03-02T03:36:57;8.90;1.00
18624;DHT22;9441;51.420;7.036;2024-03-02T03:37:58;8.90;1.00
18624;DHT22;9441;51.420;7.036;2024-03-02T03:39:02;8.90;1.00
18624;DHT22;9441;51.420;7.036;2024-03-02T03:40:05;9.00;1.00
18624;DHT22;9441;51.420;7.036;2024-03-02T03:41:10;8.90;1.00
18624;DHT22;9441;51.420;7.036;2024-03-02T03:42:11;8.90;1.00
18624;DHT22;9441;51.420;7.036;2024-03-02T03:43:13;8.90;1.00
18624;DHT22;9441;51.420;7.036;2024-03-02T03:44:14;8.90;1.00
18624;DHT22;9441;51.420;7.036;2024-03-02T03:45:15;8.90;1.00
18624;DHT22;9441;51.420;7.036;2024-03-02T03:46:17;9.00;1.00
18624;DHT22;9441;51.420;7.036;2024-03-02T03:47:18;8.90;1.00
18624;DHT22;9441;51.420;7.036;2024-03-02T03:48:20;8.90;1.00
18624;DHT22;9441;51.420;7.036;2024-03-02T03:49:21;8.90;1.00
18624;DHT22;9441;51.420;7.036;2024-03-02T03:50:22;8.90;1.00
18624;DHT22;9441;51.420;7.036;2024-03-02T03:51:24;9.00;1.00
18624;DHT22;9441;51.420;7.036;2024-03-02T03:52:25;9.00;1.00
18624;DHT22;9441;51.420;7.036;2024-03-02T03:53:26;9.00;1.00
18624;DHT22;9441;51.420;7.036;2024-03-02T03:54:30;9.00;1.00
18624;DHT22;9441;51.420;7.036;2024-03-02T03:55:31;9.00;1.00
18624;DHT22;9441;51.420;7.036;2024-03-02T03:56:32;8.90;1.00
18624;DHT22;9441;51.420;7.036;2024-03-02T03:57:33;8.90;1.00
18624;DHT22;9441;51.420;7.036;2024-03-02T03:58:34;8.90;1.00
18624;DHT22;9441;51.420;7.036;2024-03-02T03:59:36;8.90;1.00
18624;DHT22;9441;51.420;7.036;2024-03-02T04:00:37;8.90;1.00
18624;DHT22;9441;51.420;7.036;2024-03-02T04:01:39;8.90;1.00
18624;DHT22;9441;51.420;7.036;2024-03-02T04:02:40;8.90;1.00
18624;DHT22;9441;51.420;7.036;2024-03-02T04:03:41;8.90;1.00
18624;DHT22;9441;51.420;7.036;2024-03-02T04:04:43;8.90;1.00
18624;DHT22;9441;51.420;7.036;2024-03-02T04:05:44;8.80;1.00
18624;DHT22;9441;51.420;7.036;2024-03-02T04:06:46;8.90;1.00
18624;DHT22;9441;51.420;7.036;2024-03-02T04:07:47;8.90;1.00
18624;DHT22;9441;51.420;7.036;2024-03-02T04:08:49;8.80;1.00
18624;DHT22;9441;51.420;7.036;2024-03-02T04:09:52;8.80;1.00
18624;DHT22;9441;51.420;7.036;2024-03-02T04:10:53;8.80;1.00
18624;DHT22;9441;51.420;7.036;2024-03-02T04:11:55;8.80;1.00
18624;DHT22;9441;51.420;7.036;2024-03-02T04:12:56;8.80;1.00
18624;DHT22;9441;51.420;7.036;2024-03-02T04:13:58;8.80;1.00
18624;DHT22;9441;51.420;7.036;2024-03-02T04:14:59;8.80;1.00
18624;DHT22;9441;51.420;7.036;2024-03-02T04:16:02;8.80;1.00
18624;DHT22;9441;51.420;7.036;2024-03-02T04:17:04;8.80;1.00
18624;DHT22;9441;51.420;7.036;2024-03-02T04:18:06;8.70;1.00
18624;DHT22;9441;51.420;7.036;2024-03-02T04:19:07;8.70;1.00
18624;DHT22;9441;51.420;7.036;2024-03-02T04:20:10;8.70;1.00
18624;DHT22;9441;51.420;7.036;2024-03-02T04:21:13;8.70;1.00
18624;DHT22;9441;51.420;7.036;2024-03-02T04:22:14;8.70;1.00
18624;DHT22;9441;51.420;7.036;2024-03-02T04:23:16;8.60;1.00
18624;DHT22;9441;51.420;7.036;2024-03-02T04:24:17;8.60;1.00
18624;DHT22;9441;51.420;7.036;2024-03-02T04:25:20;8.60;1.00
18624;DHT22;9441;51.420;7.036;2024-03-02T04:26:21;8.50;1.00
18624;DHT22;9441;51.420;7.036;2024-03-02T04:27:23;8.50;1.00
18624;DHT22;9441;51.420;7.036;2024-03-02T04:28:24;8.60;1.00
18624;DHT22;9441;51.420;7.036;2024-03-02T04:29:25;8.60;1.00
18624;DHT22;9441;51.420;7.036;2024-03-02T04:30:27;8.60;1.00
18624;DHT22;9441;51.420;7.036;2024-03-02T04:31:28;8.60;1.00
18624;DHT22;9441;51.420;7.036;2024-03-02T04:32:30;8.60;1.00
18624;DHT22;9441;51.420;7.036;2024-03-02T04:33:32;8.60;1.00
18624;DHT22;9441;51.420;7.036;2024-03-02T04:34:34;8.50;1.00
18624;DHT22;9441;51.420;7.036;2024-03-02T04:35:35;8.50;1.00
18624;DHT22;9441;51.420;7.036;2024-03-02T04:36:37;8.50;1.00
18624;DHT22;9441;51.420;7.036;2024-03-02T04:37:39;8.50;1.00
18624;DHT22;9441;51.420;7.036;2024-03-02T04:38:40;8.40;1.00
18624;DHT22;9441;51.420;7.036;2024-03-02T04:39:41;8.40;1.00
18624;DHT22;9441;51.420;7.036;2024-03-02T04:40:44;8.40;1.00
18624;DHT22;9441;51.420;7.036;2024-03-02T04:41:46;8.40;1.00
18624;DHT22;9441;51.420;7.036;2024-03-02T04:42:47;8.30;1.00
18624;DHT22;9441;51.420;7.036;2024-03-02T04:43:49;8.30;1.00
18624;DHT22;9441;51.420;7.036;2024-03-02T04:44:50;8.30;1.00
18624;DHT22;9441;51.420;7.036;2024-03-02T04:45:52;8.20;1.00
18624;DHT22;9441;51.420;7.036;2024-03-02T04:46:53;8.20;1.00
18624;DHT22;9441;51.420;7.036;2024-03-02T04:47:55;8.20;1.00
18624;DHT22;9441;51.420;7.036;2024-03-02T04:48:56;8.10;1.00
18624;DHT22;9441;51.420;7.036;2024-03-02T04:49:57;8.10;1.00
18624;DHT22;9441;51.420;7.036;2024-03-02T04:50:58;8.10;1.00
18624;DHT22;9441;51.420;7.036;2024-03-02T04:52:00;8.10;1.00
18624;DHT22;9441;51.420;7.036;2024-03-02T04:53:02;8.00;1.00
18624;DHT22;9441;51.420;7.036;2024-03-02T04:54:04;8.10;1.00
18624;DHT22;9441;51.420;7.036;2024-03-02T04:55:06;8.10;1.00
18624;DHT22;9441;51.420;7.036;2024-03-02T04:56:37;8.10;1.00
18624;DHT22;9441;51.420;7.036;2024-03-02T04:57:45;8.10;1.00
18624;DHT22;9441;51.420;7.036;2024-03-02T04:58:48;8.10;1.00
18624;DHT22;9441;51.420;7.036;2024-03-02T04:59:49;8.10;1.00
18624;DHT22;9441;51.420;7.036;2024-03-02T05:00:51;8.00;1.00
18624;DHT22;9441;51.420;7.036;2024-03-02T05:01:52;8.00;1.00
18624;DHT22;9441;51.420;7.036;2024-03-02T05:02:54;8.00;1.00
18624;DHT22;9441;51.420;7.036;2024-03-02T05:03:55;8.00;1.00
18624;DHT22;9441;51.420;7.036;2024-03-02T05:04:57;8.00;1.00
18624;DHT22;9441;51.420;7.036;2024-03-02T05:05:59;8.00;1.00
18624;DHT22;9441;51.420;7.036;2024-03-02T05:07:00;7.90;1.00
18624;DHT22;9441;51.420;7.036;2024-03-02T05:08:02;8.00;1.00
18624;DHT22;9441;51.420;7.036;2024-03-02T05:09:03;8.00;1.00
18624;DHT22;9441;51.420;7.036;2024-03-02T05:10:06;7.90;1.00
18624;DHT22;9441;51.420;7.036;2024-03-02T05:11:07;8.00;1.00
18624;DHT22;9441;51.420;7.036;2024-03-02T05:12:28;8.00;1.00
18624;DHT22;9441;51.420;7.036;2024-03-02T05:13:57;7.90;1.00
18624;DHT22;9441;51.420;7.036;2024-03-02T05:14:58;8.00;1.00
18624;DHT22;9441;51.420;7.036;2024-03-02T05:15:59;8.00;1.00
18624;DHT22;9441;51.420;7.036;2024-03-02T05:17:01;8.00;1.00
18624;DHT22;9441;51.420;7.036;2024-03-02T05:18:02;8.00;1.00
18624;DHT22;9441;51.420;7.036;2024-03-02T05:19:05;8.00;1.00
18624;DHT22;9441;51.420;7.036;2024-03-02T05:20:08;8.00;1.00
18624;DHT22;9441;51.420;7.036;2024-03-02T05:21:09;8.00;1.00
18624;DHT22;9441;51.420;7.036;2024-03-02T05:22:12;7.90;1.00
18624;DHT22;9441;51.420;7.036;2024-03-02T05:23:13;7.80;1.00
18624;DHT22;9441;51.420;7.036;2024-03-02T05:24:15;7.90;1.00
18624;DHT22;9441;51.420;7.036;2024-03-02T05:25:16;7.90;1.00
18624;DHT22;9441;51.420;7.036;2024-03-02T05:26:19;7.90;1.00
18624;DHT22;9441;51.420;7.036;2024-03-02T05:27:20;7.90;1.00
18624;DHT22;9441;51.420;7.036;2024-03-02T05:28:23;7.90;1.00
18624;DHT22;9441;51.420;7.036;2024-03-02T05:29:24;7.90;1.00
18624;DHT22;9441;51.420;7.036;2024-03-02T05:30:26;7.80;1.00
18624;DHT22;9441;51.420;7.036;2024-03-02T05:31:27;7.80;1.00
18624;DHT22;9441;51.420;7.036;2024-03-02T05:32:29;7.80;1.00
18624;DHT22;9441;51.420;7.036;2024-03-02T05:33:30;7.80;1.00
18624;DHT22;9441;51.420;7.036;2024-03-02T05:34:33;7.80;1.00
18624;DHT22;9441;51.420;7.036;2024-03-02T05:35:36;7.80;1.00
18624;DHT22;9441;51.420;7.036;2024-03-02T05:36:38;7.70;1.00
18624;DHT22;9441;51.420;7.036;2024-03-02T05:37:39;7.70;1.00
18624;DHT22;9441;51.420;7.036;2024-03-02T05:38:41;7.80;1.00
18624;DHT22;9441;51.420;7.036;2024-03-02T05:39:43;7.70;1.00
18624;DHT22;9441;51.420;7.036;2024-03-02T05:40:44;7.70;1.00
18624;DHT22;9441;51.420;7.036;2024-03-02T05:41:46;7.70;1.00
18624;DHT22;9441;51.420;7.036;2024-03-02T05:42:47;7.70;1.00
18624;DHT22;9441;51.420;7.036;2024-03-02T05:43:50;7.70;4.30
18624;DHT22;9441;51.420;7.036;2024-03-02T05:44:51;7.80;1.00
18624;DHT22;9441;51.420;7.036;2024-03-02T05:45:54;7.80;1.00
18624;DHT22;9441;51.420;7.036;2024-03-02T05:46:55;7.70;1.00
18624;DHT22;9441;51.420;7.036;2024-03-02T05:47:56;7.80;1.00
18624;DHT22;9441;51.420;7.036;2024-03-02T05:48:58;7.70;1.00
18624;DHT22;9441;51.420;7.036;2024-03-02T05:50:00;7.70;1.00
18624;DHT22;9441;51.420;7.036;2024-03-02T05:51:01;7.80;1.00
18624;DHT22;9441;51.420;7.036;2024-03-02T05:52:02;7.70;1.00
18624;DHT22;9441;51.420;7.036;2024-03-02T05:53:04;7.80;1.00
18624;DHT22;9441;51.420;7.036;2024-03-02T05:54:05;7.70;1.00
18624;DHT22;9441;51.420;7.036;2024-03-02T05:55:07;7.70;1.00
18624;DHT22;9441;51.420;7.036;2024-03-02T05:56:08;7.70;1.00
18624;DHT22;9441;51.420;7.036;2024-03-02T05:57:11;7.80;6.90
18624;DHT22;9441;51.420;7.036;2024-03-02T05:58:22;7.80;3.70
18624;DHT22;9441;51.420;7.036;2024-03-02T05:59:39;7.70;1.00
18624;DHT22;9441;51.420;7.036;2024-03-02T06:00:40;7.70;1.00
18624;DHT22;9441;51.420;7.036;2024-03-02T06:01:42;7.70;1.00
18624;DHT22;9441;51.420;7.036;2024-03-02T06:02:44;7.70;1.00
18624;DHT22;9441;51.420;7.036;2024-03-02T06:03:46;7.70;1.00
18624;DHT22;9441;51.420;7.036;2024-03-02T06:04:47;7.70;1.00
18624;DHT22;9441;51.420;7.036;2024-03-02T06:05:49;7.70;1.00
18624;DHT22;9441;51.420;7.036;2024-03-02T06:06:50;7.70;1.00
18624;DHT22;9441;51.420;7.036;2024-03-02T06:07:51;7.60;1.00
18624;DHT22;9441;51.420;7.036;2024-03-02T06:08:55;7.50;1.00
18624;DHT22;9441;51.420;7.036;2024-03-02T06:09:57;7.50;11.90
18624;DHT22;9441;51.420;7.036;2024-03-02T06:10:59;7.50;20.20
18624;DHT22;9441;51.420;7.036;2024-03-02T06:12:01;7.50;25.60
18624;DHT22;9441;51.420;7.036;2024-03-02T06:13:02;7.50;26.90
18624;DHT22;9441;51.420;7.036;2024-03-02T06:14:04;7.50;25.90
18624;DHT22;9441;51.420;7.036;2024-03-02T06:15:07;7.40;27.00
18624;DHT22;9441;51.420;7.036;2024-03-02T06:16:08;7.40;56.60
18624;DHT22;9441;51.420;7.036;2024-03-02T06:17:10;7.40;68.10
18624;DHT22;9441;51.420;7.036;2024-03-02T06:18:11;7.30;58.30
18624;DHT22;9441;51.420;7.036;2024-03-02T06:19:13;7.20;92.00
18624;DHT22;9441;51.420;7.036;2024-03-02T06:20:14;7.20;99.90
18624;DHT22;9441;51.420;7.036;2024-03-02T06:21:16;7.10;99.90
18624;DHT22;9441;51.420;7.036;2024-03-02T06:22:17;7.20;99.90
18624;DHT22;9441;51.420;7.036;2024-03-02T06:23:19;7.20;99.90
18624;DHT22;9441;51.420;7.036;2024-03-02T06:24:20;7.10;99.90
18624;DHT22;9441;51.420;7.036;2024-03-02T06:25:21;7.00;99.90
18624;DHT22;9441;51.420;7.036;2024-03-02T06:26:23;7.00;99.90
18624;DHT22;9441;51.420;7.036;2024-03-02T06:27:24;7.00;99.90
18624;DHT22;9441;51.420;7.036;2024-03-02T06:28:26;7.00;99.90
18624;DHT22;9441;51.420;7.036;2024-03-02T06:29:27;6.90;99.90
18624;DHT22;9441;51.420;7.036;2024-03-02T06:30:31;6.90;99.90
18624;DHT22;9441;51.420;7.036;2024-03-02T06:31:32;6.90;99.90
18624;DHT22;9441;51.420;7.036;2024-03-02T06:32:34;6.90;99.90
18624;DHT22;9441;51.420;7.036;2024-03-02T06:33:35;6.70;99.90
18624;DHT22;9441;51.420;7.036;2024-03-02T06:34:37;6.70;99.90
18624;DHT22;9441;51.420;7.036;2024-03-02T06:35:38;6.60;99.90
18624;DHT22;9441;51.420;7.036;2024-03-02T06:36:40;6.70;99.90
18624;DHT22;9441;51.420;7.036;2024-03-02T06:37:41;6.70;99.90
18624;DHT22;9441;51.420;7.036;2024-03-02T06:38:43;6.70;99.90
18624;DHT22;9441;51.420;7.036;2024-03-02T06:39:45;6.60;99.90
18624;DHT22;9441;51.420;7.036;2024-03-02T06:40:46;6.60;99.90
18624;DHT22;9441;51.420;7.036;2024-03-02T06:41:47;6.70;1.00
18624;DHT22;9441;51.420;7.036;2024-03-02T06:42:48;6.80;1.00
18624;DHT22;9441;51.420;7.036;2024-03-02T06:43:50;6.80;1.00
18624;DHT22;9441;51.420;7.036;2024-03-02T06:45:00;6.70;1.00
18624;DHT22;9441;51.420;7.036;2024-03-02T06:46:03;6.70;1.00
18624;DHT22;9441;51.420;7.036;2024-03-02T06:47:05;6.70;1.00
18624;DHT22;9441;51.420;7.036;2024-03-02T06:48:07;6.80;1.00
18624;DHT22;9441;51.420;7.036;2024-03-02T06:49:09;6.80;1.00
18624;DHT22;9441;51.420;7.036;2024-03-02T06:50:11;6.80;1.00
18624;DHT22;9441;51.420;7.036;2024-03-02T06:51:13;6.80;1.00
18624;DHT22;9441;51.420;7.036;2024-03-02T06:52:16;6.80;1.00